createdAt,value
2022-12-05T00:02:00.303Z,-10.70
2022-12-05T00:07:04.120Z,-10.90
2022-12-05T00:12:09.028Z,-10.90
2022-12-05T00:17:12.492Z,-10.94
2022-12-05T00:22:15.946Z,-10.88
2022-12-05T00:27:21.006Z,-10.71
2022-12-05T00:32:24.406Z,-10.84
2022-12-05T00:37:27.954Z,-10.82
2022-12-05T00:42:32.851Z,-10.82
2022-12-05T00:47:36.765Z,-10.90
2022-12-05T00:52:40.205Z,-10.98
2022-12-05T00:57:44.951Z,-11.00
2022-12-05T01:02:48.383Z,-11.04
2022-12-05T01:07:51.866Z,-11.17
2022-12-05T01:12:56.783Z,-11.11
2022-12-05T01:18:00.216Z,-11.30
2022-12-05T01:23:03.634Z,-11.22
2022-12-05T01:28:28.515Z,-11.20
2022-12-05T01:33:32.057Z,-11.17
2022-12-05T01:38:35.395Z,-11.25
2022-12-05T01:44:03.103Z,-11.21
2022-12-05T01:49:11.170Z,-11.22
2022-12-05T01:54:16.985Z,-11.31
2022-12-05T01:59:24.081Z,-11.33
2022-12-05T02:04:27.998Z,-11.36
2022-12-05T02:09:31.580Z,-11.38
2022-12-05T02:14:46.390Z,-11.53
2022-12-05T02:20:02.513Z,-11.50
2022-12-05T02:25:45.882Z,-11.56
2022-12-05T02:30:57.783Z,-11.52
2022-12-05T02:36:07.376Z,-11.56
2022-12-05T02:41:18.244Z,-11.39
2022-12-05T02:46:25.301Z,-11.43
2022-12-05T02:51:32.881Z,-11.61
2022-12-05T02:56:37.811Z,-11.69
2022-12-05T03:01:46.655Z,-11.50
2022-12-05T03:06:55.163Z,-11.68
2022-12-05T03:12:07.021Z,-11.73
2022-12-05T03:17:18.528Z,-11.74
2022-12-05T03:22:29.536Z,-11.77
2022-12-05T03:27:40.853Z,-11.91
2022-12-05T03:32:55.546Z,-11.74
2022-12-05T03:38:02.721Z,-11.74
2022-12-05T03:43:13.345Z,-11.89
2022-12-05T03:48:24.299Z,-11.81
2022-12-05T03:53:31.093Z,-11.66
2022-12-05T03:58:39.203Z,-11.78
2022-12-05T04:03:48.225Z,-11.82
2022-12-05T04:08:55.786Z,-11.95
2022-12-05T04:14:03.884Z,-11.89
2022-12-05T04:19:16.535Z,-11.96
2022-12-05T04:24:48.444Z,-12.06
2022-12-05T04:29:58.766Z,-12.00
2022-12-05T04:35:11.074Z,-12.05
2022-12-05T04:40:19.571Z,-12.19
2022-12-05T04:45:27.021Z,-12.08
2022-12-05T04:50:34.821Z,-12.01
2022-12-05T04:55:41.217Z,-12.05
2022-12-05T05:00:51.915Z,-11.95
2022-12-05T05:05:58.521Z,-11.98
2022-12-05T05:11:14.516Z,-12.01
2022-12-05T05:16:20.218Z,-11.92
2022-12-05T05:21:27.139Z,-11.92
2022-12-05T05:26:31.561Z,-11.73
2022-12-05T05:31:35.445Z,-11.51
2022-12-05T05:36:40.708Z,-11.36
2022-12-05T05:41:44.457Z,-11.33
2022-12-05T05:46:48.140Z,-11.29
2022-12-05T05:51:53.057Z,-11.26
2022-12-05T05:56:56.414Z,-11.33
2022-12-05T06:02:00.012Z,-11.20
2022-12-05T06:07:04.942Z,-10.96
2022-12-05T06:12:08.887Z,-10.72
2022-12-05T06:17:12.209Z,-10.69
2022-12-05T06:22:17.086Z,-10.58
2022-12-05T06:27:20.465Z,-10.14
2022-12-05T06:32:23.887Z,-9.50
2022-12-05T06:37:28.724Z,-6.47
2022-12-05T06:42:33.253Z,-6.24
2022-12-05T06:47:36.270Z,-7.31
2022-12-05T06:52:41.186Z,-8.09
2022-12-05T06:57:44.686Z,-8.19
2022-12-05T07:02:48.299Z,-7.89
2022-12-05T07:07:53.134Z,-7.47
2022-12-05T07:12:57.692Z,-7.74
2022-12-05T07:18:01.105Z,-7.61
2022-12-05T07:23:05.890Z,-7.00
2022-12-05T07:28:09.382Z,-7.59
2022-12-05T07:33:13.070Z,-7.30
2022-12-05T07:38:18.077Z,-7.40
2022-12-05T07:43:21.643Z,-7.50
2022-12-05T07:48:25.132Z,-7.15
2022-12-05T07:53:30.023Z,-6.94
2022-12-05T07:58:34.642Z,-5.47
2022-12-05T08:03:38.434Z,-3.81
2022-12-05T08:08:43.605Z,-3.25
2022-12-05T08:13:47.351Z,-4.17
2022-12-05T08:18:51.210Z,-4.45
2022-12-05T08:23:56.370Z,-4.13
2022-12-05T08:29:02.810Z,-3.76
2022-12-05T08:34:06.276Z,-4.15
2022-12-05T08:39:16.327Z,-4.44
2022-12-05T08:44:20.536Z,-4.85
2022-12-05T08:49:24.181Z,-5.16
2022-12-05T08:54:29.451Z,-5.01
2022-12-05T08:59:33.041Z,-5.51
2022-12-05T09:04:36.537Z,-5.70
2022-12-05T09:09:41.539Z,-5.48
2022-12-05T09:14:45.185Z,-5.86
2022-12-05T09:19:52.855Z,-5.71
2022-12-05T09:24:57.936Z,-5.69
2022-12-05T09:30:01.723Z,-5.79
2022-12-05T09:35:07.311Z,-6.00
2022-12-05T09:40:18.188Z,-6.04
2022-12-05T09:45:27.566Z,-6.02
2022-12-05T09:50:33.612Z,-6.52
2022-12-05T09:55:47.160Z,-6.49
2022-12-05T10:00:56.254Z,-6.64
2022-12-05T10:06:11.902Z,-6.70
2022-12-05T10:11:23.198Z,-6.82
2022-12-05T10:16:33.080Z,-6.72
2022-12-05T10:21:43.551Z,-6.86
2022-12-05T10:26:53.334Z,-6.73
2022-12-05T10:32:05.529Z,-6.55
2022-12-05T10:37:17.172Z,-6.53
2022-12-05T10:42:26.946Z,-6.97
2022-12-05T10:47:31.048Z,-6.82
2022-12-05T10:52:34.472Z,-6.96
2022-12-05T10:57:39.634Z,-7.08
2022-12-05T11:02:44.189Z,-6.96
2022-12-05T11:07:49.761Z,-7.58
2022-12-05T11:12:57.284Z,-7.48
2022-12-05T11:18:20.245Z,-7.67
2022-12-05T11:23:29.208Z,-7.65
2022-12-05T11:28:36.890Z,-7.72
2022-12-05T11:33:41.565Z,-7.68
2022-12-05T11:38:45.741Z,-7.63
2022-12-05T11:44:13.680Z,-7.97
2022-12-05T11:49:33.945Z,-7.67
2022-12-05T11:55:04.905Z,-7.68
2022-12-05T12:00:22.745Z,-7.76
2022-12-05T12:05:37.933Z,-7.75
2022-12-05T12:10:52.036Z,-7.88
2022-12-05T12:16:08.480Z,-8.08
2022-12-05T12:21:19.642Z,-8.10
2022-12-05T12:26:32.397Z,-8.33
2022-12-05T12:31:47.648Z,-8.33
2022-12-05T12:36:57.269Z,-8.58
2022-12-05T12:42:19.889Z,-8.77
2022-12-05T12:47:37.785Z,-8.78
2022-12-05T12:52:59.218Z,-8.86
2022-12-05T12:58:14.636Z,-9.02
2022-12-05T13:03:24.370Z,-9.03
2022-12-05T13:08:34.679Z,-9.02
2022-12-05T13:13:41.766Z,-9.04
2022-12-05T13:18:47.647Z,-9.10
2022-12-05T13:23:53.662Z,-9.12
2022-12-05T13:29:00.581Z,-9.12
2022-12-05T13:34:05.561Z,-9.10
2022-12-05T13:39:38.419Z,-9.25
2022-12-05T13:44:44.466Z,-9.13
2022-12-05T13:49:54.407Z,-9.25
2022-12-05T13:55:04.266Z,-9.24
2022-12-05T14:00:27.182Z,-9.35
2022-12-05T14:05:40.630Z,-9.30
2022-12-05T14:11:11.126Z,-9.35
2022-12-05T14:16:47.008Z,-9.38
2022-12-05T14:22:03.119Z,-9.44
2022-12-05T14:27:12.962Z,-9.41
2022-12-05T14:32:26.484Z,-9.40
2022-12-05T14:37:34.951Z,-9.44
2022-12-05T14:42:43.505Z,-9.42
2022-12-05T14:47:52.675Z,-9.51
2022-12-05T14:53:31.481Z,-9.34
2022-12-05T14:58:42.262Z,-9.33
2022-12-05T15:04:05.795Z,-9.36
2022-12-05T15:09:36.441Z,-9.45
2022-12-05T15:14:48.295Z,-9.37
2022-12-05T15:19:58.394Z,-9.42
2022-12-05T15:25:25.867Z,-9.46
2022-12-05T15:30:32.472Z,-9.12
2022-12-05T15:35:37.015Z,-9.15
2022-12-05T15:40:47.919Z,-9.17
2022-12-05T15:45:52.965Z,-9.07
2022-12-05T15:50:56.644Z,-9.01
2022-12-05T15:56:07.155Z,-8.96
2022-12-05T16:01:17.006Z,-8.89
2022-12-05T16:06:26.138Z,-8.74
2022-12-05T16:11:30.054Z,-8.74
2022-12-05T16:16:39.153Z,-8.62
2022-12-05T16:21:46.344Z,-8.64
2022-12-05T16:27:00.006Z,-8.67
2022-12-05T16:32:08.431Z,-8.49
2022-12-05T16:37:20.383Z,-8.40
2022-12-05T16:42:26.789Z,-8.50
2022-12-05T16:47:57.530Z,-8.30
2022-12-05T16:53:15.166Z,-8.37
2022-12-05T16:58:26.288Z,-8.40
2022-12-05T17:03:34.801Z,-8.43
2022-12-05T17:08:38.997Z,-8.56
2022-12-05T17:13:42.840Z,-8.58
2022-12-05T17:18:48.279Z,-8.83
2022-12-05T17:23:52.752Z,-8.99
2022-12-05T17:28:56.065Z,-8.89
2022-12-05T17:34:01.177Z,-9.06
2022-12-05T17:39:04.914Z,-9.09
2022-12-05T17:44:08.452Z,-9.10
2022-12-05T17:49:15.629Z,-9.17
2022-12-05T17:54:19.139Z,-9.32
2022-12-05T17:59:22.761Z,-9.46
2022-12-05T18:04:27.606Z,-9.45
2022-12-05T18:09:31.176Z,-9.60
2022-12-05T18:14:36.256Z,-9.59
2022-12-05T18:19:41.279Z,-9.76
2022-12-05T18:24:44.957Z,-9.77
2022-12-05T18:29:49.713Z,-9.73
2022-12-05T18:34:54.815Z,-9.72
2022-12-05T18:39:58.599Z,-9.46
2022-12-05T18:45:02.126Z,-9.44
2022-12-05T18:50:11.009Z,-9.44
2022-12-05T18:55:19.781Z,-9.39
2022-12-05T19:00:27.138Z,-9.45
2022-12-05T19:05:35.429Z,-9.39
2022-12-05T19:10:38.973Z,-9.34
2022-12-05T19:15:42.356Z,-9.48
2022-12-05T19:20:52.811Z,-9.32
2022-12-05T19:25:56.975Z,-9.45
2022-12-05T19:31:02.014Z,-9.49
2022-12-05T19:36:12.157Z,-9.56
2022-12-05T19:41:18.271Z,-9.48
2022-12-05T19:46:25.174Z,-9.38
2022-12-05T19:51:30.670Z,-9.27
2022-12-05T19:56:35.579Z,-9.35
2022-12-05T20:01:41.416Z,-9.31
2022-12-05T20:06:48.369Z,-9.28
2022-12-05T20:11:55.453Z,-9.39
2022-12-05T20:16:59.535Z,-9.40
2022-12-05T20:22:04.520Z,-9.28
2022-12-05T20:27:08.236Z,-9.18
2022-12-05T20:32:11.861Z,-9.27
2022-12-05T20:37:16.894Z,-9.37
2022-12-05T20:42:20.253Z,-9.31
2022-12-05T20:47:23.878Z,-9.41
2022-12-05T20:52:28.655Z,-9.15
2022-12-05T20:57:34.074Z,-9.07
2022-12-05T21:02:37.487Z,-8.94
2022-12-05T21:07:42.313Z,-8.87
2022-12-05T21:12:45.660Z,-8.95
2022-12-05T21:17:49.225Z,-8.97
2022-12-05T21:22:53.970Z,-8.85
2022-12-05T21:27:57.581Z,-9.00
2022-12-05T21:33:00.964Z,-8.88
2022-12-05T21:38:05.982Z,-9.07
2022-12-05T21:43:09.301Z,-9.13
2022-12-05T21:48:12.854Z,-9.11
2022-12-05T21:53:17.772Z,-9.21
2022-12-05T21:58:21.531Z,-9.11
2022-12-05T22:03:25.503Z,-9.19
2022-12-05T22:08:32.142Z,-9.15
2022-12-05T22:13:35.744Z,-9.27
2022-12-05T22:18:39.885Z,-9.14
2022-12-05T22:23:44.963Z,-9.09
2022-12-05T22:28:50.801Z,-9.06
2022-12-05T22:33:54.324Z,-9.04
2022-12-05T22:38:59.335Z,-9.08
2022-12-05T22:44:02.714Z,-8.93
2022-12-05T22:49:06.775Z,-8.94
2022-12-05T22:54:11.674Z,-9.13
2022-12-05T22:59:15.308Z,-9.18
2022-12-05T23:04:18.926Z,-9.10
2022-12-05T23:09:24.563Z,-9.08
2022-12-05T23:14:29.448Z,-9.07
2022-12-05T23:19:33.030Z,-8.88
2022-12-05T23:24:37.905Z,-8.94
2022-12-05T23:29:41.453Z,-8.88
2022-12-05T23:34:44.870Z,-8.74
2022-12-05T23:39:49.851Z,-8.69
2022-12-05T23:44:53.253Z,-8.84
2022-12-05T23:49:57.041Z,-8.76
2022-12-05T23:55:01.986Z,-8.60
